ADDS TAF Data INFO
IDs: Format: Raw Decoded Include METARs

Data at: 1308 UTC 19 Jan 2018

KCVS 191258Z AUTO 26010KT 10SM CLR 01/M11 A3000 RMK AO2 SLP164 T00081113 $

TAF KCVS 191004Z 1910/2016 23009KT 9999 SKC QNH2998INS
  BECMG 1916/1917 25010G15KT 9999 FEW250 QNH2998INS
  BECMG 1920/1921 25018G25KT 9999 FEW250 510009 QNH2985INS
  BECMG 1923/1924 26012KT 9999 SKC QNH2985INS TX20/1922Z TNM01/1914Z